Terminal Aerodrome Forecast
Issued by NWS Detroit/Pontiac, MI

Home | Current Version | Previous Version | Text Only | Print | Product List | Glossary On
Versions: 1 2 3 4 5 6 7 8 9 10 11 12 13 14 15
000
FTUS43 KDTX 020500
TAFFNT
TAF
KFNT 020525Z 0206/0306 20004KT P6SM SCT060 BKN150
     FM020900 00000KT 6SM BR FEW060 SCT150
     FM021200 VRB04KT P6SM SCT060 SCT150=

USA.gov is the U.S. government's official web portal to all federal, state and local government web resources and services.